Time;durP1;ratioP1;P1;durP2;ratioP2;P2;SDS_P1;SDS_P2;PMS_P1;PMS_P2;Temp;Humidity;BMP_temperature;BMP_pressure;BME280_temperature;BME280_humidity;BME280_pressure;Samples;Min_cycle;Max_cycle;Signal;HPM_P1;HPM_P2
2023/08/18 00:01:51;;;;;;;9.07;8.15;;;;;;;;;;5011222;28;20472;-69
2023/08/18 00:04:17;;;;;;;7.97;7.18;;;;;;;;;;5007814;28;20162;-69
2023/08/18 00:06:43;;;;;;;8.18;7.38;;;;;;;;;;5018466;28;20092;-69
2023/08/18 00:09:09;;;;;;;8.82;7.93;;;;;;;;;;5023575;28;20132;-69
2023/08/18 00:11:35;;;;;;;8.38;7.57;;;;;;;;;;5027769;28;20516;-69
2023/08/18 00:14:01;;;;;;;8.68;7.75;;;;;;;;;;5010688;28;20094;-69
2023/08/18 00:16:27;;;;;;;9.68;7.90;;;;;;;;;;5026312;28;20092;-68
2023/08/18 00:18:53;;;;;;;9.13;7.68;;;;;;;;;;5029470;28;20075;-69
2023/08/18 00:21:19;;;;;;;9.07;7.57;;;;;;;;;;5027438;28;20072;-69
2023/08/18 00:23:45;;;;;;;7.97;7.18;;;;;;;;;;5016544;28;20092;-68
2023/08/18 00:26:11;;;;;;;8.05;7.25;;;;;;;;;;5016346;28;20046;-68
2023/08/18 00:28:37;;;;;;;8.35;7.18;;;;;;;;;;5010605;28;20029;-69
2023/08/18 00:31:03;;;;;;;8.05;7.25;;;;;;;;;;5025096;28;20442;-68
2023/08/18 00:33:29;;;;;;;9.77;7.05;;;;;;;;;;5009978;28;20046;-69
2023/08/18 00:35:55;;;;;;;7.90;7.10;;;;;;;;;;5010187;28;20045;-68
2023/08/18 00:38:21;;;;;;;9.55;6.80;;;;;;;;;;5010068;28;20224;-68
2023/08/18 00:40:47;;;;;;;7.68;6.88;;;;;;;;;;5003205;28;20074;-69
2023/08/18 00:43:13;;;;;;;8.75;7.57;;;;;;;;;;5001154;28;20449;-68
2023/08/18 00:45:39;;;;;;;8.57;7.57;;;;;;;;;;5016759;28;20045;-68
2023/08/18 00:48:06;;;;;;;7.80;6.85;;;;;;;;;;5015181;28;20045;-69
2023/08/18 00:50:32;;;;;;;8.40;7.05;;;;;;;;;;5010332;28;20106;-69
2023/08/18 00:52:59;;;;;;;7.85;6.60;;;;;;;;;;5019208;28;20080;-69
2023/08/18 00:55:28;;;;;;;7.85;7.00;;;;;;;;;;5016378;28;20042;-69
2023/08/18 00:57:58;;;;;;;8.20;6.93;;;;;;;;;;4991773;28;20041;-69
2023/08/18 01:00:24;;;;;;;7.90;6.80;;;;;;;;;;4992131;28;20046;-69
2023/08/18 01:02:51;;;;;;;7.80;7.00;;;;;;;;;;5024483;28;20094;-68
2023/08/18 01:05:17;;;;;;;7.32;6.47;;;;;;;;;;5029745;28;20045;-68
2023/08/18 01:07:43;;;;;;;8.02;7.20;;;;;;;;;;5001546;28;20057;-68
2023/08/18 01:10:09;;;;;;;7.65;6.85;;;;;;;;;;5003883;28;20045;-69
2023/08/18 01:12:41;;;;;;;7.93;6.95;;;;;;;;;;5002622;28;20049;-69
2023/08/18 01:15:07;;;;;;;7.72;6.93;;;;;;;;;;5014737;28;20084;-69
2023/08/18 01:17:54;;;;;;;7.28;6.57;;;;;;;;;;4989412;28;20045;-69
2023/08/18 01:20:20;;;;;;;8.02;6.70;;;;;;;;;;5008015;28;20042;-68
2023/08/18 01:22:48;;;;;;;7.70;6.68;;;;;;;;;;5012175;28;20087;-68
2023/08/18 01:25:14;;;;;;;7.28;6.47;;;;;;;;;;5015708;28;20049;-68
2023/08/18 01:27:40;;;;;;;7.75;6.90;;;;;;;;;;5028584;28;20110;-68
2023/08/18 01:30:07;;;;;;;7.97;7.10;;;;;;;;;;5023984;28;20037;-68
2023/08/18 01:32:36;;;;;;;8.05;6.20;;;;;;;;;;4996165;28;20053;-68
2023/08/18 01:35:02;;;;;;;7.57;6.47;;;;;;;;;;5009787;28;20128;-68
2023/08/18 01:37:29;;;;;;;9.05;6.47;;;;;;;;;;5008840;28;20050;-69
2023/08/18 01:39:57;;;;;;;8.02;6.40;;;;;;;;;;5015749;28;20778;-69
2023/08/18 01:42:23;;;;;;;8.18;6.43;;;;;;;;;;5011069;28;20426;-68
2023/08/18 01:44:49;;;;;;;7.00;6.18;;;;;;;;;;5008657;28;20372;-68
2023/08/18 01:47:16;;;;;;;8.02;6.60;;;;;;;;;;5014349;28;20053;-68
2023/08/18 01:49:42;;;;;;;6.53;5.93;;;;;;;;;;4994107;28;20053;-68
2023/08/18 01:52:08;;;;;;;10.45;6.90;;;;;;;;;;5013616;28;20490;-69
2023/08/18 01:54:34;;;;;;;6.72;6.03;;;;;;;;;;5014515;28;20040;-69
2023/08/18 01:57:00;;;;;;;6.72;6.03;;;;;;;;;;5010259;28;20084;-68
2023/08/18 01:59:26;;;;;;;6.28;5.68;;;;;;;;;;4991535;28;20069;-68
2023/08/18 02:01:52;;;;;;;8.52;6.30;;;;;;;;;;5018151;28;20049;-68
2023/08/18 02:04:18;;;;;;;6.80;6.03;;;;;;;;;;5024569;28;20038;-68
2023/08/18 02:06:44;;;;;;;7.38;6.57;;;;;;;;;;5027909;28;20523;-68
2023/08/18 02:09:10;;;;;;;7.53;5.78;;;;;;;;;;5027140;28;20496;-68
2023/08/18 02:11:36;;;;;;;6.57;5.72;;;;;;;;;;5026429;28;20057;-68
2023/08/18 02:14:02;;;;;;;6.72;5.95;;;;;;;;;;5010195;28;20049;-68
2023/08/18 02:16:28;;;;;;;7.72;5.63;;;;;;;;;;5029052;28;20106;-68
2023/08/18 02:18:54;;;;;;;7.35;6.15;;;;;;;;;;5020830;28;20046;-68
2023/08/18 02:21:20;;;;;;;6.20;5.57;;;;;;;;;;4998258;28;20053;-68
2023/08/18 02:23:46;;;;;;;8.35;5.78;;;;;;;;;;5018714;28;20046;-68
2023/08/18 02:26:12;;;;;;;6.78;5.80;;;;;;;;;;5020667;28;20072;-68
2023/08/18 02:28:38;;;;;;;6.13;5.55;;;;;;;;;;5017778;28;20064;-68
2023/08/18 02:31:05;;;;;;;7.88;5.97;;;;;;;;;;5013446;28;20500;-69
2023/08/18 02:33:32;;;;;;;7.60;5.88;;;;;;;;;;4995120;28;20085;-69
2023/08/18 02:35:59;;;;;;;7.35;6.00;;;;;;;;;;5014498;28;20090;-68
2023/08/18 02:38:25;;;;;;;6.60;5.53;;;;;;;;;;5028200;28;20056;-68
2023/08/18 02:40:52;;;;;;;7.78;6.03;;;;;;;;;;5015291;28;20042;-68
2023/08/18 02:43:18;;;;;;;7.15;5.82;;;;;;;;;;5016446;28;20046;-68
2023/08/18 02:45:44;;;;;;;7.45;5.63;;;;;;;;;;5011690;28;20137;-69
2023/08/18 02:48:13;;;;;;;10.20;5.75;;;;;;;;;;5012043;28;20112;-68
2023/08/18 02:50:40;;;;;;;8.35;5.95;;;;;;;;;;5009676;28;20098;-68
2023/08/18 02:53:06;;;;;;;8.40;6.45;;;;;;;;;;5011388;28;20654;-68
2023/08/18 02:55:34;;;;;;;8.38;6.30;;;;;;;;;;4990555;28;20049;-68
2023/08/18 02:58:00;;;;;;;7.00;6.30;;;;;;;;;;5011034;28;20058;-68
2023/08/18 03:00:27;;;;;;;6.50;5.80;;;;;;;;;;5010836;28;20050;-69
2023/08/18 03:02:53;;;;;;;9.50;6.30;;;;;;;;;;5025041;28;20049;-68
2023/08/18 03:05:19;;;;;;;8.90;6.53;;;;;;;;;;5001774;28;20168;-68
2023/08/18 03:07:45;;;;;;;7.20;6.32;;;;;;;;;;5013253;28;20053;-68
2023/08/18 03:10:12;;;;;;;8.85;6.32;;;;;;;;;;5010161;28;20401;-68
2023/08/18 03:12:38;;;;;;;7.15;6.20;;;;;;;;;;5018869;28;20070;-69
2023/08/18 03:15:04;;;;;;;8.77;6.53;;;;;;;;;;5007948;28;20053;-68
2023/08/18 03:17:30;;;;;;;8.13;6.32;;;;;;;;;;5022261;28;20054;-68
2023/08/18 03:19:56;;;;;;;7.07;6.38;;;;;;;;;;4991209;28;20155;-68
2023/08/18 03:22:22;;;;;;;7.90;6.50;;;;;;;;;;5025153;28;20077;-68
2023/08/18 03:24:48;;;;;;;8.10;6.85;;;;;;;;;;5021938;28;20037;-68
2023/08/18 03:27:14;;;;;;;8.05;7.20;;;;;;;;;;5023587;28;20124;-68
2023/08/18 03:29:40;;;;;;;7.38;6.50;;;;;;;;;;5017946;28;20080;-68
2023/08/18 03:32:06;;;;;;;7.80;6.97;;;;;;;;;;5010888;28;20049;-68
2023/08/18 03:34:32;;;;;;;6.97;6.30;;;;;;;;;;5015611;28;20057;-68
2023/08/18 03:36:58;;;;;;;8.90;6.78;;;;;;;;;;5014864;28;20088;-69
2023/08/18 03:39:24;;;;;;;9.98;7.20;;;;;;;;;;5027773;28;20087;-68
2023/08/18 03:41:50;;;;;;;8.65;6.60;;;;;;;;;;5027192;28;20045;-68
2023/08/18 03:44:16;;;;;;;7.90;6.47;;;;;;;;;;5019083;28;20132;-68
2023/08/18 03:46:42;;;;;;;9.40;6.47;;;;;;;;;;5030567;28;20084;-69
2023/08/18 03:49:09;;;;;;;8.40;6.32;;;;;;;;;;5018863;28;20050;-68
2023/08/18 03:51:35;;;;;;;7.65;6.55;;;;;;;;;;5020593;28;20046;-68
2023/08/18 03:54:01;;;;;;;8.68;6.88;;;;;;;;;;5012102;28;20049;-68
2023/08/18 03:56:27;;;;;;;7.68;6.30;;;;;;;;;;5003529;28;20049;-68
2023/08/18 03:58:53;;;;;;;7.43;6.00;;;;;;;;;;5015326;28;20042;-68
2023/08/18 04:01:19;;;;;;;7.35;6.50;;;;;;;;;;5011347;28;20445;-68
2023/08/18 04:03:45;;;;;;;7.53;6.40;;;;;;;;;;5013822;28;20041;-68
2023/08/18 04:06:14;;;;;;;8.25;6.32;;;;;;;;;;5002672;28;20065;-70
2023/08/18 04:08:41;;;;;;;7.95;6.57;;;;;;;;;;5013329;28;20128;-68
2023/08/18 04:11:07;;;;;;;7.72;6.38;;;;;;;;;;4997521;28;20072;-68
2023/08/18 04:13:34;;;;;;;9.05;6.20;;;;;;;;;;5036568;27;20049;-69
2023/08/18 04:16:00;;;;;;;7.93;6.38;;;;;;;;;;5075869;27;20035;-68
2023/08/18 04:18:26;;;;;;;7.90;6.00;;;;;;;;;;5015983;28;20049;-69
2023/08/18 04:20:52;;;;;;;8.82;6.32;;;;;;;;;;5005804;28;20060;-69
2023/08/18 04:23:18;;;;;;;8.38;6.63;;;;;;;;;;5020111;28;20095;-69
2023/08/18 04:25:45;;;;;;;7.68;6.88;;;;;;;;;;5027867;28;20103;-69
2023/08/18 04:28:11;;;;;;;7.97;6.75;;;;;;;;;;5005770;28;20067;-69
2023/08/18 04:30:38;;;;;;;8.10;6.55;;;;;;;;;;5020526;28;20045;-70
2023/08/18 04:33:04;;;;;;;7.85;6.88;;;;;;;;;;4997728;28;20050;-70
2023/08/18 04:35:30;;;;;;;10.70;7.13;;;;;;;;;;4992798;28;20077;-70
2023/08/18 04:37:56;;;;;;;8.98;7.15;;;;;;;;;;5010633;28;20037;-69
2023/08/18 04:40:23;;;;;;;9.07;6.78;;;;;;;;;;5009979;28;20054;-70
2023/08/18 04:42:49;;;;;;;8.98;7.10;;;;;;;;;;5027489;28;20055;-70
2023/08/18 04:45:15;;;;;;;8.00;7.20;;;;;;;;;;5030547;28;20092;-70
2023/08/18 04:47:41;;;;;;;9.35;7.40;;;;;;;;;;5029239;28;20541;-70
2023/08/18 04:50:08;;;;;;;8.93;7.55;;;;;;;;;;5029148;28;20053;-70
2023/08/18 04:52:34;;;;;;;9.52;7.25;;;;;;;;;;5011420;28;20101;-70
2023/08/18 04:55:00;;;;;;;10.45;7.82;;;;;;;;;;5029412;28;20045;-70
2023/08/18 04:57:26;;;;;;;9.73;7.65;;;;;;;;;;5009286;28;20052;-70
2023/08/18 04:59:52;;;;;;;8.82;7.15;;;;;;;;;;5030218;28;20050;-70
2023/08/18 05:02:18;;;;;;;9.43;7.70;;;;;;;;;;5029569;28;20045;-69
2023/08/18 05:04:44;;;;;;;13.55;8.05;;;;;;;;;;5009110;28;20046;-70
2023/08/18 05:07:11;;;;;;;11.57;8.05;;;;;;;;;;4992198;28;20141;-70
2023/08/18 05:09:37;;;;;;;11.18;7.80;;;;;;;;;;5024124;28;20094;-70
2023/08/18 05:12:07;;;;;;;11.00;8.10;;;;;;;;;;5030519;28;20167;-70
2023/08/18 05:14:33;;;;;;;12.25;8.45;;;;;;;;;;5010341;28;20053;-70
2023/08/18 05:16:59;;;;;;;12.43;8.45;;;;;;;;;;5030080;28;20492;-70
2023/08/18 05:19:25;;;;;;;13.23;8.80;;;;;;;;;;5012250;28;20049;-70
2023/08/18 05:21:51;;;;;;;11.88;8.25;;;;;;;;;;5002325;28;20061;-71
2023/08/18 05:24:17;;;;;;;14.00;8.75;;;;;;;;;;4999025;28;20045;-70
2023/08/18 05:26:44;;;;;;;12.07;8.27;;;;;;;;;;5029387;28;20057;-70
2023/08/18 05:29:10;;;;;;;15.45;9.98;;;;;;;;;;5029359;28;20056;-70
2023/08/18 05:31:37;;;;;;;14.80;10.18;;;;;;;;;;5026278;28;20049;-71
2023/08/18 05:34:03;;;;;;;18.23;10.82;;;;;;;;;;5029762;28;20048;-70
2023/08/18 05:36:30;;;;;;;17.48;11.60;;;;;;;;;;5010295;28;20110;-70
2023/08/18 05:38:56;;;;;;;18.25;10.85;;;;;;;;;;5028450;28;20515;-70
2023/08/18 05:41:22;;;;;;;14.93;10.00;;;;;;;;;;5029729;28;20049;-70
2023/08/18 05:43:48;;;;;;;16.73;11.02;;;;;;;;;;5012403;28;20053;-70
2023/08/18 05:46:15;;;;;;;20.20;10.95;;;;;;;;;;5009054;28;20049;-70
2023/08/18 05:48:41;;;;;;;15.18;10.45;;;;;;;;;;5024359;28;20094;-70
2023/08/18 05:51:07;;;;;;;16.08;10.25;;;;;;;;;;5011047;28;20132;-70
2023/08/18 05:53:33;;;;;;;16.42;10.82;;;;;;;;;;5027709;28;20045;-70
2023/08/18 05:55:59;;;;;;;16.45;10.45;;;;;;;;;;5011992;28;20057;-70
2023/08/18 05:58:25;;;;;;;16.45;9.77;;;;;;;;;;5028313;28;20070;-70
2023/08/18 06:00:51;;;;;;;16.77;10.48;;;;;;;;;;5021520;28;20050;-70
2023/08/18 06:03:20;;;;;;;14.55;10.20;;;;;;;;;;4992423;28;20060;-70
2023/08/18 06:05:50;;;;;;;16.92;10.15;;;;;;;;;;4991823;28;20057;-70
2023/08/18 06:08:16;;;;;;;16.33;10.30;;;;;;;;;;4992019;28;20131;-70
2023/08/18 06:10:42;;;;;;;15.48;10.15;;;;;;;;;;5008547;28;20096;-70
2023/08/18 06:13:08;;;;;;;14.48;9.10;;;;;;;;;;5024019;28;20435;-70
2023/08/18 06:15:34;;;;;;;16.48;9.95;;;;;;;;;;5029054;28;20049;-70
2023/08/18 06:18:01;;;;;;;16.40;10.30;;;;;;;;;;5010907;28;20125;-71
2023/08/18 06:20:27;;;;;;;15.50;9.32;;;;;;;;;;5027968;28;20053;-70
2023/08/18 06:22:53;;;;;;;14.20;9.32;;;;;;;;;;5011289;28;20507;-70
2023/08/18 06:25:19;;;;;;;13.25;9.48;;;;;;;;;;5009799;28;20054;-69
2023/08/18 06:27:45;;;;;;;13.98;10.00;;;;;;;;;;5028886;28;20389;-70
2023/08/18 06:30:11;;;;;;;14.90;10.50;;;;;;;;;;5007249;28;20042;-70
2023/08/18 06:32:38;;;;;;;12.88;9.63;;;;;;;;;;5010519;28;20098;-70
2023/08/18 06:35:04;;;;;;;13.85;10.40;;;;;;;;;;5011671;28;20049;-69
2023/08/18 06:37:30;;;;;;;18.10;11.10;;;;;;;;;;5009253;28;20397;-69
2023/08/18 06:39:56;;;;;;;16.35;10.93;;;;;;;;;;5001720;28;20648;-69
2023/08/18 06:42:22;;;;;;;19.13;10.40;;;;;;;;;;5007427;28;20046;-68
2023/08/18 06:44:48;;;;;;;19.02;11.85;;;;;;;;;;5009068;28;20048;-68
2023/08/18 06:47:14;;;;;;;18.95;11.68;;;;;;;;;;4990520;28;20049;-68
2023/08/18 06:49:40;;;;;;;17.70;11.45;;;;;;;;;;5000351;28;20041;-68
2023/08/18 06:52:06;;;;;;;18.67;11.25;;;;;;;;;;5028928;28;20041;-67
2023/08/18 06:54:33;;;;;;;19.33;11.68;;;;;;;;;;5028363;28;20125;-67
2023/08/18 06:56:59;;;;;;;14.55;10.55;;;;;;;;;;5027382;28;20527;-68
2023/08/18 06:59:25;;;;;;;15.05;10.98;;;;;;;;;;5030336;28;20077;-67
2023/08/18 07:01:53;;;;;;;16.92;11.55;;;;;;;;;;5025000;28;20046;-68
2023/08/18 07:04:19;;;;;;;16.35;10.95;;;;;;;;;;4995017;28;20050;-68
2023/08/18 07:06:45;;;;;;;15.07;10.43;;;;;;;;;;5024596;28;20049;-68
2023/08/18 07:09:12;;;;;;;14.93;10.48;;;;;;;;;;5014403;28;20042;-68
2023/08/18 07:11:38;;;;;;;16.65;10.88;;;;;;;;;;5032089;28;20049;-68
2023/08/18 07:14:04;;;;;;;15.93;10.88;;;;;;;;;;5029727;28;20099;-68
2023/08/18 07:16:30;;;;;;;13.93;10.63;;;;;;;;;;5016479;28;20505;-68
2023/08/18 07:18:57;;;;;;;18.75;10.90;;;;;;;;;;5020344;28;20120;-68
2023/08/18 07:21:23;;;;;;;15.55;10.77;;;;;;;;;;5031037;28;20046;-69
2023/08/18 07:23:49;;;;;;;16.75;10.82;;;;;;;;;;5021113;28;20390;-68
2023/08/18 07:26:16;;;;;;;15.00;10.63;;;;;;;;;;4994767;28;20501;-68
2023/08/18 07:28:42;;;;;;;14.60;10.05;;;;;;;;;;5006023;28;20045;-68
2023/08/18 07:31:08;;;;;;;12.55;9.98;;;;;;;;;;5030832;28;20061;-68
2023/08/18 07:33:34;;;;;;;11.25;9.43;;;;;;;;;;5029231;28;20494;-69
2023/08/18 07:36:01;;;;;;;12.80;10.38;;;;;;;;;;5025921;28;20041;-68
2023/08/18 07:38:27;;;;;;;13.63;10.10;;;;;;;;;;5014163;28;20056;-68
2023/08/18 07:40:53;;;;;;;12.45;9.70;;;;;;;;;;5030474;28;20565;-68
2023/08/18 07:43:19;;;;;;;13.48;9.48;;;;;;;;;;5030889;28;20122;-68
2023/08/18 07:45:45;;;;;;;10.63;8.82;;;;;;;;;;5030692;28;20401;-68
2023/08/18 07:48:12;;;;;;;12.82;9.38;;;;;;;;;;5030309;28;20049;-68
2023/08/18 07:50:40;;;;;;;18.45;12.43;;;;;;;;;;5011966;28;20056;-69
2023/08/18 07:53:05;;;;;;;12.40;8.27;;;;;;;;;;5031532;28;20456;-68
2023/08/18 07:55:31;;;;;;;10.63;8.32;;;;;;;;;;5022336;28;20129;-68
2023/08/18 07:57:58;;;;;;;9.10;7.80;;;;;;;;;;5011258;28;20154;-68
2023/08/18 08:00:26;;;;;;;8.88;7.60;;;;;;;;;;5011496;28;20439;-68
2023/08/18 08:02:52;;;;;;;11.25;8.10;;;;;;;;;;5020976;28;20053;-68
2023/08/18 08:05:20;;;;;;;9.88;7.72;;;;;;;;;;5030476;28;20061;-68
2023/08/18 08:07:46;;;;;;;7.88;7.03;;;;;;;;;;5011564;28;20060;-68
2023/08/18 08:10:14;;;;;;;8.45;7.00;;;;;;;;;;5013560;28;20074;-69
2023/08/18 08:12:41;;;;;;;11.27;8.00;;;;;;;;;;5010947;28;20054;-68
2023/08/18 08:15:08;;;;;;;11.98;7.82;;;;;;;;;;5011142;28;20042;-68
2023/08/18 08:17:34;;;;;;;11.30;7.10;;;;;;;;;;5011868;28;20496;-69
2023/08/18 08:20:03;;;;;;;9.32;6.90;;;;;;;;;;5030930;28;20160;-69
2023/08/18 08:22:29;;;;;;;9.30;6.43;;;;;;;;;;5014995;28;20340;-68
2023/08/18 08:24:55;;;;;;;10.82;7.47;;;;;;;;;;5012446;28;20504;-69
2023/08/18 08:27:21;;;;;;;8.88;6.65;;;;;;;;;;5027933;28;20049;-68
2023/08/18 08:29:48;;;;;;;11.00;6.65;;;;;;;;;;5029169;28;20045;-69
2023/08/18 08:32:14;;;;;;;8.35;6.40;;;;;;;;;;5029941;28;20069;-69
2023/08/18 08:34:40;;;;;;;7.93;6.00;;;;;;;;;;5030335;28;20433;-69
2023/08/18 08:37:06;;;;;;;8.70;5.60;;;;;;;;;;5029150;28;20092;-68
2023/08/18 08:39:32;;;;;;;6.45;5.20;;;;;;;;;;5012211;28;20056;-69
2023/08/18 08:41:58;;;;;;;10.18;5.25;;;;;;;;;;5011951;28;20045;-69
2023/08/18 08:44:24;;;;;;;8.10;5.63;;;;;;;;;;5030543;28;20404;-69
2023/08/18 08:46:51;;;;;;;6.63;5.47;;;;;;;;;;5013627;28;20082;-68
2023/08/18 08:49:17;;;;;;;9.27;5.68;;;;;;;;;;5014162;28;20445;-69
2023/08/18 08:51:46;;;;;;;7.60;5.95;;;;;;;;;;5029792;28;20073;-69
2023/08/18 08:54:15;;;;;;;6.82;5.55;;;;;;;;;;5028716;28;20050;-69
2023/08/18 08:56:43;;;;;;;7.82;5.60;;;;;;;;;;5003798;28;20163;-69
2023/08/18 08:59:09;;;;;;;8.52;5.72;;;;;;;;;;5009727;28;20077;-69
2023/08/18 09:01:36;;;;;;;7.57;5.82;;;;;;;;;;5005572;28;20695;-69
2023/08/18 09:04:02;;;;;;;6.32;5.13;;;;;;;;;;5027880;28;20041;-69
2023/08/18 09:06:28;;;;;;;6.32;5.22;;;;;;;;;;5029224;28;20184;-69
2023/08/18 09:08:54;;;;;;;6.40;5.20;;;;;;;;;;5028849;28;20533;-68
2023/08/18 09:11:37;;;;;;;6.00;5.03;;;;;;;;;;5030209;28;20049;-69
2023/08/18 09:14:03;;;;;;;;;;;;;;;;;;5029852;28;20056;-69
2023/08/18 09:16:31;;;;;;;7.10;4.82;;;;;;;;;;4996030;28;20300;-69
2023/08/18 09:18:57;;;;;;;8.13;5.18;;;;;;;;;;5009867;28;20050;-69
2023/08/18 09:21:23;;;;;;;6.10;5.07;;;;;;;;;;5012854;28;20124;-69
2023/08/18 09:23:55;;;;;;;7.65;5.78;;;;;;;;;;5023900;28;20514;-69
2023/08/18 09:26:21;;;;;;;8.60;6.00;;;;;;;;;;5030304;28;20374;-69
2023/08/18 09:28:47;;;;;;;7.45;5.30;;;;;;;;;;5028768;28;20049;-69
2023/08/18 09:31:13;;;;;;;7.75;5.75;;;;;;;;;;5004891;28;20103;-69
2023/08/18 09:33:39;;;;;;;8.60;5.30;;;;;;;;;;5009605;28;20572;-69
2023/08/18 09:36:05;;;;;;;8.13;5.60;;;;;;;;;;4991695;28;20053;-69
2023/08/18 09:38:41;;;;;;;8.40;5.78;;;;;;;;;;5010091;28;20037;-69
2023/08/18 09:41:08;;;;;;;7.30;5.20;;;;;;;;;;5018255;28;20042;-69
2023/08/18 09:43:34;;;;;;;6.20;4.97;;;;;;;;;;5028703;28;20045;-69
2023/08/18 09:46:03;;;;;;;6.50;5.50;;;;;;;;;;5020461;28;20095;-69
2023/08/18 09:48:34;;;;;;;8.77;6.22;;;;;;;;;;5026829;28;20041;-69
2023/08/18 09:51:00;;;;;;;8.32;6.20;;;;;;;;;;5029249;28;20114;-69
2023/08/18 09:53:33;;;;;;;10.63;5.65;;;;;;;;;;5029701;28;20045;-69
2023/08/18 09:56:11;;;;;;;5.47;4.50;;;;;;;;;;5001962;28;20133;-69
2023/08/18 09:59:03;;;;;;;8.63;6.00;;;;;;;;;;5009339;28;20042;-69
2023/08/18 10:01:30;;;;;;;9.85;6.35;;;;;;;;;;5018361;28;20053;-69
2023/08/18 10:03:58;;;;;;;8.32;6.20;;;;;;;;;;5015817;28;20473;-69
2023/08/18 10:06:25;;;;;;;10.38;6.95;;;;;;;;;;5026263;28;20089;-69
2023/08/18 10:08:52;;;;;;;11.63;6.70;;;;;;;;;;5028604;28;20521;-69
2023/08/18 10:11:18;;;;;;;7.82;6.03;;;;;;;;;;5009843;28;20125;-69
2023/08/18 10:13:45;;;;;;;10.27;7.00;;;;;;;;;;5010642;28;20045;-69
2023/08/18 10:16:11;;;;;;;8.73;6.72;;;;;;;;;;5009145;28;20124;-69
2023/08/18 10:18:38;;;;;;;10.32;6.70;;;;;;;;;;5027625;28;20041;-69
2023/08/18 10:21:04;;;;;;;9.27;7.32;;;;;;;;;;5013378;28;20085;-69
2023/08/18 10:23:31;;;;;;;9.15;7.03;;;;;;;;;;5024798;28;20086;-69
2023/08/18 10:25:58;;;;;;;11.80;6.88;;;;;;;;;;5024844;28;20375;-69
2023/08/18 10:28:28;;;;;;;9.85;7.50;;;;;;;;;;5009189;28;20070;-69
2023/08/18 10:30:59;;;;;;;10.02;7.53;;;;;;;;;;4990172;28;20061;-69
2023/08/18 10:33:42;;;;;;;9.93;7.25;;;;;;;;;;5027150;28;20106;-69
2023/08/18 10:36:08;;;;;;;10.98;7.53;;;;;;;;;;5029162;28;20057;-69
2023/08/18 10:38:36;;;;;;;12.52;8.15;;;;;;;;;;5013317;28;20084;-69
2023/08/18 10:41:02;;;;;;;9.98;7.25;;;;;;;;;;5020254;28;20393;-69
2023/08/18 10:43:29;;;;;;;9.70;6.85;;;;;;;;;;5028703;28;20088;-69
2023/08/18 10:45:59;;;;;;;9.85;6.95;;;;;;;;;;5026948;28;20041;-69
2023/08/18 10:48:29;;;;;;;8.75;6.45;;;;;;;;;;5011016;28;20064;-69
2023/08/18 10:50:55;;;;;;;9.70;6.82;;;;;;;;;;5028443;28;20065;-69
2023/08/18 10:53:21;;;;;;;9.52;6.57;;;;;;;;;;5022064;28;20050;-69
2023/08/18 10:55:47;;;;;;;9.07;7.07;;;;;;;;;;5008682;28;20053;-69
2023/08/18 10:58:15;;;;;;;16.02;9.15;;;;;;;;;;5021851;28;20057;-69
2023/08/18 11:00:41;;;;;;;11.27;8.32;;;;;;;;;;5027830;28;20049;-69
2023/08/18 11:03:07;;;;;;;9.10;7.07;;;;;;;;;;5009925;28;20098;-69
2023/08/18 11:05:34;;;;;;;11.32;6.90;;;;;;;;;;5028438;28;20053;-69
2023/08/18 11:08:00;;;;;;;9.27;7.30;;;;;;;;;;5027539;28;20053;-69
2023/08/18 11:10:27;;;;;;;12.68;7.97;;;;;;;;;;5027080;28;20080;-69
2023/08/18 11:12:54;;;;;;;8.75;7.43;;;;;;;;;;5027605;28;20042;-69
2023/08/18 11:15:21;;;;;;;12.25;7.47;;;;;;;;;;4991544;28;20145;-69
2023/08/18 11:17:47;;;;;;;12.50;7.32;;;;;;;;;;5008254;28;20054;-69
2023/08/18 11:20:13;;;;;;;12.32;7.35;;;;;;;;;;4993630;28;20058;-69
2023/08/18 11:22:39;;;;;;;11.48;7.07;;;;;;;;;;5028634;28;20053;-69
2023/08/18 11:25:06;;;;;;;10.68;7.55;;;;;;;;;;5008703;28;20048;-69
2023/08/18 11:27:32;;;;;;;9.60;7.10;;;;;;;;;;5027814;28;20512;-69
2023/08/18 11:29:59;;;;;;;11.18;7.70;;;;;;;;;;5027561;28;20038;-69
2023/08/18 11:32:25;;;;;;;10.88;7.80;;;;;;;;;;5027659;28;20405;-69
2023/08/18 11:34:51;;;;;;;9.57;8.45;;;;;;;;;;5026760;28;20045;-69
2023/08/18 11:37:22;;;;;;;10.57;7.78;;;;;;;;;;5028323;28;20046;-69
2023/08/18 11:39:48;;;;;;;9.10;7.75;;;;;;;;;;5028293;28;20090;-69
2023/08/18 11:42:14;;;;;;;9.63;7.65;;;;;;;;;;4996570;28;20053;-69
2023/08/18 11:44:40;;;;;;;12.70;9.38;;;;;;;;;;5029138;28;20041;-69
2023/08/18 11:47:11;;;;;;;12.93;8.20;;;;;;;;;;5031502;28;20046;-70
2023/08/18 11:49:37;;;;;;;15.45;9.02;;;;;;;;;;5030696;28;20048;-70
2023/08/18 11:52:04;;;;;;;11.35;8.50;;;;;;;;;;5031645;28;20049;-69
2023/08/18 11:54:32;;;;;;;10.73;8.98;;;;;;;;;;5012540;28;20563;-69
2023/08/18 11:56:58;;;;;;;10.93;8.57;;;;;;;;;;5030407;28;20052;-69
2023/08/18 11:59:25;;;;;;;10.90;8.98;;;;;;;;;;5029254;28;20557;-69
2023/08/18 12:01:55;;;;;;;19.48;9.95;;;;;;;;;;5031108;28;20137;-69
2023/08/18 12:04:27;;;;;;;11.48;9.88;;;;;;;;;;5012491;28;20048;-69
2023/08/18 12:06:54;;;;;;;12.50;8.88;;;;;;;;;;5012809;28;20644;-70
2023/08/18 12:09:20;;;;;;;15.23;10.20;;;;;;;;;;5029093;28;20049;-69
2023/08/18 12:11:46;;;;;;;13.77;10.52;;;;;;;;;;5011878;28;20049;-69
2023/08/18 12:14:12;;;;;;;12.15;9.77;;;;;;;;;;4994122;28;20136;-69
2023/08/18 12:16:38;;;;;;;13.57;10.40;;;;;;;;;;5019824;28;20484;-69
2023/08/18 12:19:04;;;;;;;11.50;10.20;;;;;;;;;;5010062;28;20049;-69
2023/08/18 12:21:31;;;;;;;13.75;10.25;;;;;;;;;;5031081;28;20128;-69
2023/08/18 12:23:57;;;;;;;13.65;10.23;;;;;;;;;;5029049;28;20064;-69
2023/08/18 12:26:23;;;;;;;15.20;10.27;;;;;;;;;;5012999;28;20049;-69
2023/08/18 12:28:49;;;;;;;14.38;10.65;;;;;;;;;;5011721;28;20114;-69
2023/08/18 12:31:18;;;;;;;13.40;10.63;;;;;;;;;;5011800;28;20047;-69
2023/08/18 12:33:44;;;;;;;12.18;10.82;;;;;;;;;;5030179;28;20101;-69
2023/08/18 12:36:11;;;;;;;13.23;10.32;;;;;;;;;;5000912;28;20537;-69
2023/08/18 12:38:37;;;;;;;13.63;11.27;;;;;;;;;;5029330;28;20072;-70
2023/08/18 12:41:03;;;;;;;14.02;10.80;;;;;;;;;;5013187;28;20050;-69
2023/08/18 12:43:29;;;;;;;13.30;10.20;;;;;;;;;;5029790;28;20045;-69
2023/08/18 12:45:56;;;;;;;15.23;10.00;;;;;;;;;;5029115;28;20503;-70
2023/08/18 12:48:22;;;;;;;12.80;10.18;;;;;;;;;;5030116;28;20394;-69
2023/08/18 12:50:48;;;;;;;19.58;11.45;;;;;;;;;;5025538;28;20443;-69
2023/08/18 12:53:14;;;;;;;14.70;11.00;;;;;;;;;;5009843;28;20500;-69
2023/08/18 12:55:40;;;;;;;14.77;10.95;;;;;;;;;;5009424;28;20481;-69
2023/08/18 12:58:06;;;;;;;14.82;11.20;;;;;;;;;;4998964;28;20038;-69
2023/08/18 13:00:32;;;;;;;13.48;10.77;;;;;;;;;;5029531;28;20045;-69
2023/08/18 13:02:58;;;;;;;15.55;11.23;;;;;;;;;;5030633;28;20156;-70
2023/08/18 13:05:24;;;;;;;13.10;10.52;;;;;;;;;;5029215;28;20105;-69
2023/08/18 13:07:52;;;;;;;12.77;10.57;;;;;;;;;;5005808;28;20046;-69
2023/08/18 13:10:18;;;;;;;14.13;10.82;;;;;;;;;;5010277;28;20056;-69
2023/08/18 13:12:44;;;;;;;11.15;10.00;;;;;;;;;;5024838;28;20523;-69
2023/08/18 13:15:10;;;;;;;13.63;10.70;;;;;;;;;;5030075;28;20046;-69
2023/08/18 13:17:37;;;;;;;12.75;10.32;;;;;;;;;;5012020;28;20549;-70
2023/08/18 13:20:03;;;;;;;13.98;10.57;;;;;;;;;;5010566;28;20075;-69
2023/08/18 13:22:29;;;;;;;14.93;11.32;;;;;;;;;;5029244;28;20057;-69
2023/08/18 13:24:55;;;;;;;12.35;9.95;;;;;;;;;;5012199;28;20053;-70
2023/08/18 13:27:21;;;;;;;11.20;9.52;;;;;;;;;;5011416;28;20045;-69
2023/08/18 13:29:47;;;;;;;12.73;10.15;;;;;;;;;;5015281;28;20519;-69
2023/08/18 13:32:13;;;;;;;16.20;10.90;;;;;;;;;;5010363;28;20037;-70
2023/08/18 13:34:40;;;;;;;11.43;10.23;;;;;;;;;;4991819;28;20053;-70
2023/08/18 13:37:06;;;;;;;11.45;9.48;;;;;;;;;;5010342;28;20051;-70
2023/08/18 13:39:32;;;;;;;12.52;10.48;;;;;;;;;;4995449;28;20049;-69
2023/08/18 13:41:58;;;;;;;11.50;9.73;;;;;;;;;;5009174;28;20421;-70
2023/08/18 13:44:24;;;;;;;12.77;10.88;;;;;;;;;;5010260;28;20050;-69
2023/08/18 13:46:50;;;;;;;13.15;11.43;;;;;;;;;;4992466;28;20061;-70
2023/08/18 13:49:16;;;;;;;12.18;10.88;;;;;;;;;;5027283;28;20046;-70
2023/08/18 13:51:42;;;;;;;11.45;10.02;;;;;;;;;;5005468;28;20134;-70
2023/08/18 13:54:13;;;;;;;12.82;10.02;;;;;;;;;;5020556;28;20395;-70
2023/08/18 13:56:40;;;;;;;11.98;9.80;;;;;;;;;;5031549;28;20074;-70
2023/08/18 13:59:06;;;;;;;10.98;9.85;;;;;;;;;;5028150;28;20045;-70
2023/08/18 14:01:32;;;;;;;10.50;8.77;;;;;;;;;;5027427;28;20057;-70
2023/08/18 14:03:59;;;;;;;13.52;9.32;;;;;;;;;;5001707;28;20048;-70
2023/08/18 14:06:25;;;;;;;10.35;9.23;;;;;;;;;;5020468;28;20500;-69
2023/08/18 14:08:51;;;;;;;11.45;10.35;;;;;;;;;;5028369;28;20480;-70
2023/08/18 14:11:17;;;;;;;12.55;10.75;;;;;;;;;;5018657;28;20474;-69
2023/08/18 14:13:43;;;;;;;11.75;10.55;;;;;;;;;;4996676;28;20041;-70
2023/08/18 14:16:09;;;;;;;12.98;10.73;;;;;;;;;;5024991;28;20050;-70
2023/08/18 14:18:35;;;;;;;11.68;10.13;;;;;;;;;;5015500;28;20499;-70
2023/08/18 14:21:03;;;;;;;11.55;9.77;;;;;;;;;;5004996;28;20148;-70
2023/08/18 14:23:30;;;;;;;13.20;10.02;;;;;;;;;;5025199;28;20531;-70
2023/08/18 14:25:56;;;;;;;10.93;9.82;;;;;;;;;;5018888;28;20098;-71
2023/08/18 14:28:22;;;;;;;13.63;10.25;;;;;;;;;;5028952;28;20045;-71
2023/08/18 14:30:48;;;;;;;9.25;8.27;;;;;;;;;;4995698;28;20094;-71